Flight Track Log - Related Links

Times and Time Zones

All times are in EDT time to prevent confusion due to time zone crossing. See the AWE1991 flight status page for this flight to view local times or setup timezone preferences in your user account.

Time Position Orientation Groundspeed Altitude Reporting Facility
EDT Latitude Longitude Course Direction KTS MPH feet Rate Location/Type
Mon 09:47:45 AM 39.8761 -75.2204 71° East 163 188 400  Level FlightAware ADS-B
Mon 09:47:55 AM 39.8786 -75.2119 69° East 162 186 800 2,160 Climbing FlightAware ADS-B
Mon 09:48:10 AM 39.8827 -75.1976 70° East 167 192 1,300 1,448 Climbing FlightAware ADS-B
Mon 09:48:24 AM 39.8871 -75.1830 69° East 190 219 1,500 800 Climbing FlightAware ADS-B
Mon 09:48:40 AM 39.8928 -75.1654 67° East 209 241 1,700 968 Climbing FlightAware ADS-B
Mon 09:48:55 AM 39.8984 -75.1477 68° East 225 259 2,000 1,263 Climbing FlightAware ADS-B
Mon 09:48:59 AM 39.9004 -75.1425 63° Northeast 230 265 2,100 2,250 Climbing FlightAware ADS-B
Mon 09:49:03 AM 39.9028 -75.1381 55° Northeast 235 270 2,300 2,250 Climbing FlightAware ADS-B
Mon 09:49:07 AM 39.9061 -75.1338 45° Northeast 237 273 2,400 1,800 Climbing FlightAware ADS-B
Mon 09:49:13 AM 39.9120 -75.1286 34° Northeast 242 278 2,600 1,800 Climbing FlightAware ADS-B
Mon 09:49:17 AM 39.9157 -75.1266 23° Northeast 248 285 2,700 1,500 Climbing FlightAware ADS-B
Mon 09:49:21 AM 39.9201 -75.1251 15° North 252 290 2,800 2,571 Climbing FlightAware ADS-B
Mon 09:49:24 AM 39.9244 -75.1246 North 255 293 3,000 2,250 Climbing FlightAware ADS-B
Mon 09:49:29 AM 39.9297 -75.1249 358° North 257 296 3,100 1,500 Climbing FlightAware ADS-B
Mon 09:49:32 AM 39.9338 -75.1260 348° North 260 299 3,200 2,250 Climbing FlightAware ADS-B
Mon 09:49:37 AM 39.9394 -75.1286 340° North 261 300 3,400 2,667 Climbing FlightAware ADS-B
Mon 09:49:41 AM 39.9437 -75.1315 333° Northwest 262 302 3,600 2,400 Climbing FlightAware ADS-B
Mon 09:49:47 AM 39.9500 -75.1373 325° Northwest 266 306 3,800 1,500 Climbing FlightAware ADS-B
Mon 09:49:53 AM 39.9548 -75.1432 317° Northwest 268 308 3,900 1,750 Climbing FlightAware ADS-B
Mon 09:50:11 AM 39.9704 -75.1652 313° West 280 322 4,500 2,143 Climbing FlightAware ADS-B
Mon 09:50:21 AM 39.9792 -75.1777 313° West 282 325 4,900 2,857 Climbing FlightAware ADS-B
Mon 09:50:32 AM 39.9889 -75.1918 312° West 282 325 5,500 3,000 Climbing FlightAware ADS-B
Mon 09:50:47 AM 40.0016 -75.2112 311° West 280 322 6,200 2,813 Climbing FlightAware ADS-B
Mon 09:51:04 AM 40.0155 -75.2327 310° West 278 320 7,000 2,813 Climbing FlightAware ADS-B
Mon 09:51:19 AM 40.0280 -75.2522 310° West 278 320 7,700 2,400 Climbing FlightAware ADS-B
Mon 09:51:34 AM 40.0403 -75.2718 309° West 282 325 8,200 2,000 Climbing FlightAware ADS-B
Mon 09:51:49 AM 40.0532 -75.2922 310° West 291 335 8,700 1,935 Climbing FlightAware ADS-B
Mon 09:52:05 AM 40.0671 -75.3141 310° West 298 343 9,200 2,129 Climbing FlightAware ADS-B
Mon 09:52:20 AM 40.0807 -75.3355 310° West 301 346 9,800 1,600 Climbing FlightAware ADS-B
Mon 09:52:50 AM 40.1086 -75.3798 309° West 328 377 10,400 1,082 Climbing FlightAware ADS-B
Mon 09:53:21 AM 40.1397 -75.4290 310° West 356 410 10,900 1,279 Climbing FlightAware ADS-B
Mon 09:53:51 AM 40.1726 -75.4811 310° West 373 429 11,700 1,846 Climbing FlightAware ADS-B
Mon 09:54:26 AM 40.2108 -75.5413 310° West 380 437 12,900 2,100 Climbing FlightAware ADS-B
Mon 09:54:51 AM 40.2393 -75.5861 310° West 384 442 13,800 1,964 Climbing FlightAware ADS-B
Mon 09:55:21 AM 40.2757 -75.6401 311° West 394 453 14,700 2,000 Climbing FlightAware ADS-B
Mon 09:55:51 AM 40.3118 -75.6942 311° West 393 452 15,800 2,032 Climbing FlightAware ADS-B
Mon 09:56:23 AM 40.3493 -75.7507 311° West 396 456 16,800 1,742 Climbing FlightAware ADS-B
Mon 09:56:53 AM 40.3856 -75.8055 311° West 403 464 17,600 1,862 Climbing FlightAware ADS-B
Mon 09:57:21 AM 40.4204 -75.8583 311° West 403 464 18,600 1,800 Climbing FlightAware ADS-B
Mon 09:57:33 AM 40.4336 -75.8826 306° West 407 468 18,800 1,143 Climbing FlightAware ADS-B
Mon 09:57:42 AM 40.4409 -75.9034 295° West 413 475 19,000 1,412 Climbing FlightAware ADS-B
Mon 09:57:50 AM 40.4447 -75.9211 286° West 414 476 19,200 1,756 Climbing FlightAware ADS-B
Mon 09:58:23 AM 40.4581 -76.0018 282° West 415 478 20,200 1,569 Climbing FlightAware ADS-B
Mon 09:58:55 AM 40.4714 -76.0820 282° West 421 484 20,900 1,548 Climbing FlightAware ADS-B
Mon 09:59:25 AM 40.4836 -76.1576 282° West 422 486 21,800 1,475 Climbing FlightAware ADS-B
Mon 09:59:56 AM 40.4962 -76.2350 282° West 427 491 22,400 1,219 Climbing FlightAware ADS-B
Mon 10:00:29 AM 40.5101 -76.3213 282° West 433 498 23,100 1,219 Climbing FlightAware ADS-B
Mon 10:01:00 AM 40.5225 -76.3997 282° West 435 501 23,700 1,238 Climbing FlightAware ADS-B
Mon 10:01:32 AM 40.5356 -76.4825 282° West 439 505 24,400 1,258 Climbing FlightAware ADS-B
Mon 10:02:02 AM 40.5482 -76.5624 282° West 441 507 25,000 1,179 Climbing FlightAware ADS-B
Mon 10:02:28 AM 40.5570 -76.6323 279° West 444 511 25,500 984 Climbing FlightAware ADS-B
Mon 10:03:03 AM 40.5655 -76.7253 277° West 448 516 26,000 923 Climbing FlightAware ADS-B
Mon 10:03:33 AM 40.5729 -76.8075 277° West 452 520 26,500 938 Climbing FlightAware ADS-B
Mon 10:04:07 AM 40.5811 -76.8988 277° West 456 525 27,000 909 Climbing FlightAware ADS-B
Mon 10:04:39 AM 40.5890 -76.9891 277° West 460 529 27,500 952 Climbing FlightAware ADS-B
Mon 10:05:10 AM 40.5966 -77.0759 277° West 461 531 28,000 1,032 Climbing FlightAware ADS-B
Mon 10:06:12 AM 40.6100 -77.2250 277° West 455 524 29,100 1,079 Climbing FlightAware ADS-B
Mon 10:06:39 AM 40.6177 -77.3212 276° West 457 526 29,600 1,065 Climbing FlightAware ADS-B
Mon 10:07:14 AM 40.6257 -77.4167 276° West 455 524 30,200 1,026 Climbing FlightAware ADS-B
Mon 10:07:55 AM 40.6351 -77.5293 276° West 453 521 30,900 990 Climbing FlightAware ADS-B
Mon 10:08:51 AM 40.6475 -77.6801 276° West 451 519 31,800 710 Climbing FlightAware ADS-B
Mon 10:09:28 AM 40.6557 -77.7818 276° West 447 514 32,000 171 Climbing FlightAware ADS-B
Mon 10:10:01 AM 40.6668 -77.8697 279° West 449 517 32,000  Level FlightAware ADS-B
Mon 10:11:02 AM 40.6880 -78.0190 281° West 451 519 32,000  Level FlightAware ADS-B
Mon 10:11:47 AM 40.7030 -78.1340 280° West 452 520 32,000  Level FlightAware ADS-B
Mon 10:12:27 AM 40.7190 -78.2490 280° West 453 521 32,000  Level FlightAware ADS-B
Mon 10:13:22 AM 40.7390 -78.3950 280° West 452 520 32,000  Level FlightAware ADS-B
Mon 10:14:07 AM 40.7550 -78.5130 280° West 450 518 32,000  Level FlightAware ADS-B
Mon 10:14:47 AM 40.7700 -78.6280 280° West 451 519 32,000  Level FlightAware ADS-B
Mon 10:15:27 AM 40.7850 -78.7380 280° West 452 520 32,000  Level FlightAware ADS-B
Mon 10:16:12 AM 40.8000 -78.8530 280° West 456 525 32,000  Level FlightAware ADS-B
Mon 10:16:52 AM 40.8160 -78.9710 280° West 456 525 32,000  Level FlightAware ADS-B
Mon 10:17:37 AM 40.8320 -79.0950 280° West 458 527 32,000  Level FlightAware ADS-B
Mon 10:18:17 AM 40.8450 -79.2010 279° West 459 528 32,000  Level FlightAware ADS-B
Mon 10:18:57 AM 40.8600 -79.3150 280° West 461 531 32,000  Level FlightAware ADS-B
Mon 10:19:42 AM 40.8760 -79.4440 279° West 463 533 32,000  Level FlightAware ADS-B
Mon 10:20:22 AM 40.8900 -79.5500 280° West 464 534 32,000  Level FlightAware ADS-B
Mon 10:21:07 AM 40.9060 -79.6800 279° West 466 536 32,000  Level FlightAware ADS-B
Mon 10:21:47 AM 40.9200 -79.7990 279° West 466 536 32,000  Level FlightAware ADS-B
Mon 10:22:27 AM 40.9340 -79.9140 279° West 466 536 32,000  Level FlightAware ADS-B
Mon 10:23:12 AM 40.9500 -80.0410 280° West 466 536 32,000  Level FlightAware ADS-B
Mon 10:23:52 AM 40.9630 -80.1510 279° West 466 536 32,000  Level FlightAware ADS-B
Mon 10:24:37 AM 40.9790 -80.2810 279° West 465 535 32,000  Level FlightAware ADS-B
Mon 10:25:17 AM 40.9910 -80.3900 278° West 465 535 32,000  Level FlightAware ADS-B
Mon 10:25:57 AM 41.0050 -80.5040 279° West 465 535 32,000 71 Level FlightAware ADS-B
Mon 10:26:42 AM 41.0200 -80.6340 279° West 467 537 32,100 282 Climbing FlightAware ADS-B
Mon 10:27:22 AM 41.0330 -80.7480 279° West 472 543 32,400 600 Climbing FlightAware ADS-B
Mon 10:28:02 AM 41.0450 -80.8550 278° West 471 542 32,900 847 Climbing FlightAware ADS-B
Mon 10:28:47 AM 41.0550 -80.9860 276° West 463 533 33,600 706 Climbing FlightAware ADS-B
Mon 10:29:27 AM 41.0620 -81.0990 275° West 465 535 33,900 282 Climbing FlightAware ADS-B
Mon 10:30:12 AM 41.0700 -81.2260 275° West 470 541 34,000 71 Climbing FlightAware ADS-B
Mon 10:30:52 AM 41.0780 -81.3450 275° West 471 542 34,000  Level FlightAware ADS-B
Mon 10:31:37 AM 41.0860 -81.4710 275° West 470 541 34,000  Level FlightAware ADS-B
Mon 10:32:17 AM 41.0920 -81.5870 274° West 469 540 34,000  Level FlightAware ADS-B
Mon 10:32:57 AM 41.0990 -81.7010 275° West 470 541 34,000  Level FlightAware ADS-B
Mon 10:33:42 AM 41.1070 -81.8330 275° West 470 541 34,000  Level FlightAware ADS-B
Mon 10:34:22 AM 41.1130 -81.9420 274° West 470 541 34,000  Level FlightAware ADS-B
Mon 10:35:07 AM 41.1210 -82.0750 275° West 471 542 34,000  Level FlightAware ADS-B
Mon 10:35:47 AM 41.1270 -82.1850 274° West 472 543 34,000  Level FlightAware ADS-B
Mon 10:36:32 AM 41.1340 -82.3150 274° West 473 544 34,000  Level FlightAware ADS-B
Mon 10:37:07 AM 41.1390 -82.4190 274° West 473 544 34,000  Level FlightAware ADS-B
Mon 10:37:52 AM 41.1460 -82.5430 274° West 474 545 34,000  Level FlightAware ADS-B
Mon 10:38:32 AM 41.1520 -82.6660 274° West 474 545 34,000  Level FlightAware ADS-B
Mon 10:39:07 AM 41.1570 -82.7640 274° West 475 547 34,000  Level FlightAware ADS-B
Mon 10:39:57 AM 41.1640 -82.9050 274° West 477 549 34,000 -505 Level FlightAware ADS-B
Mon 10:40:42 AM 41.1710 -83.0420 274° West 474 545 33,200 -988 Descending FlightAware ADS-B
Mon 10:41:22 AM 41.1770 -83.1600 274° West 479 551 32,600 -900 Descending FlightAware ADS-B
Mon 10:42:02 AM 41.1820 -83.2770 273° West 479 551 32,000 -424 Descending FlightAware ADS-B
Mon 10:42:47 AM 41.1890 -83.4120 274° West 480 552 32,000  Level FlightAware ADS-B
Mon 10:43:27 AM 41.1940 -83.5310 273° West 480 552 32,000  Level FlightAware ADS-B
Mon 10:44:12 AM 41.2000 -83.6630 274° West 480 552 32,000  Level FlightAware ADS-B
Mon 10:44:52 AM 41.2050 -83.7810 273° West 480 552 32,000  Level FlightAware ADS-B
Mon 10:45:32 AM 41.2100 -83.8950 273° West 481 554 32,000 71 Level FlightAware ADS-B
Mon 10:46:17 AM 41.2150 -84.0260 273° West 479 551 32,100 71 Climbing FlightAware ADS-B
Mon 10:46:57 AM 41.2200 -84.1450 273° West 475 547 32,100 -75 Level FlightAware ADS-B
Mon 10:47:37 AM 41.2240 -84.2620 273° West 470 541 32,000 -71 Descending FlightAware ADS-B
Mon 10:48:22 AM 41.2280 -84.3890 272° West 465 535 32,000  Level FlightAware ADS-B
Mon 10:48:57 AM 41.2310 -84.4860 272° West 457 526 32,000  Level FlightAware ADS-B
Mon 10:49:47 AM 41.2340 -84.6220 272° West 459 528 32,000 -667 Level FlightAware ADS-B
Mon 10:50:27 AM 41.2380 -84.7410 273° West 461 531 31,000 -1,694 Descending FlightAware ADS-B
Mon 10:51:12 AM 41.2430 -84.8690 273° West 456 525 29,600 -1,906 Descending FlightAware ADS-B
Mon 10:51:52 AM 41.2570 -84.9820 279° West 467 537 28,300 -1,200 Descending FlightAware ADS-B
Mon 10:52:32 AM 41.2730 -85.0900 281° West 484 557 28,000 -424 Descending FlightAware ADS-B
Mon 10:53:17 AM 41.2940 -85.2220 282° West 477 549 27,700 -1,271 Descending FlightAware ADS-B
Mon 10:53:57 AM 41.3100 -85.3330 281° West 467 537 26,200 -1,906 Descending FlightAware ADS-B
Mon 10:54:42 AM 41.3300 -85.4650 281° West 469 540 25,000 -1,482 Descending FlightAware ADS-B
Mon 10:55:22 AM 41.3470 -85.5790 281° West 457 526 24,100 -750 Descending FlightAware ADS-B
Mon 10:56:02 AM 41.3640 -85.6900 282° West 455 524 24,000 -71 Descending FlightAware ADS-B
Mon 10:56:47 AM 41.3820 -85.8140 281° West 453 521 24,000  Level FlightAware ADS-B
Mon 10:57:27 AM 41.3970 -85.9190 281° West 452 520 24,000  Level FlightAware ADS-B
Mon 10:58:07 AM 41.4130 -86.0280 281° West 451 519 24,000  Level FlightAware ADS-B
Mon 10:58:52 AM 41.4310 -86.1530 281° West 451 519 24,000  Level FlightAware ADS-B
Mon 10:59:32 AM 41.4460 -86.2610 281° West 451 519 24,000 -150 Level FlightAware ADS-B
Mon 11:00:12 AM 41.4610 -86.3660 281° West 449 517 23,800 -706 Descending FlightAware ADS-B
Mon 11:00:57 AM 41.4800 -86.4960 281° West 446 513 23,000 -1,200 Descending FlightAware ADS-B
Mon 11:01:37 AM 41.4940 -86.5990 280° West 443 510 22,100 -1,906 Descending FlightAware ADS-B
Mon 11:02:22 AM 41.5100 -86.7160 280° West 435 501 20,300 -2,612 Descending FlightAware ADS-B
Mon 11:03:02 AM 41.5260 -86.8270 281° West 432 497 18,400 -2,612 Descending FlightAware ADS-B
Mon 11:03:47 AM 41.5410 -86.9370 280° West 425 489 16,600 -3,106 Descending FlightAware ADS-B
Mon 11:04:27 AM 41.5540 -87.0370 280° West 408 470 14,000 -3,450 Descending FlightAware ADS-B
Mon 11:05:07 AM 41.5680 -87.1400 280° West 399 459 12,000 -1,482 Descending FlightAware ADS-B
Mon 11:05:52 AM 41.5860 -87.2460 283° West 373 429 11,900 -267 Descending FlightAware ADS-B
Mon 11:06:37 AM 41.6280 -87.3250 305° West 369 425 11,600 -706 Descending FlightAware ADS-B
Mon 11:07:17 AM 41.6590 -87.4100 296° West 371 427 10,900 -494 Descending FlightAware ADS-B
Mon 11:08:02 AM 41.6930 -87.5050 296° West 370 426 10,900  Level FlightAware ADS-B
Mon 11:08:42 AM 41.7260 -87.5830 300° West 342 394 10,900 -150 Level FlightAware ADS-B
Mon 11:09:22 AM 41.7700 -87.6380 317° Northwest 314 361 10,700 -494 Descending FlightAware ADS-B
Mon 11:10:07 AM 41.8160 -87.6930 318° Northwest 287 330 10,200 -565 Descending FlightAware ADS-B
Mon 11:10:47 AM 41.8510 -87.7410 314° West 264 304 9,900 -764 Descending FlightAware ADS-B
Mon 11:11:02 AM 41.8550 -87.7680 281° West 257 296 9,500 -1,350 Descending FlightAware ADS-B
Mon 11:11:27 AM 41.8540 -87.8040 268° West 251 289 9,000 -1,350 Descending FlightAware ADS-B
Mon 11:11:42 AM 41.8530 -87.8300 267° West 250 288 8,600 -1,200 Descending FlightAware ADS-B
Mon 11:12:07 AM 41.8520 -87.8650 268° West 243 280 8,200 -873 Descending FlightAware ADS-B
Mon 11:12:37 AM 41.8410 -87.9060 250° West 214 246 7,800 -900 Descending FlightAware ADS-B
Mon 11:13:07 AM 41.8220 -87.9340 228° Southwest 203 234 7,300 -982 Descending FlightAware ADS-B
Mon 11:13:32 AM 41.8080 -87.9540 227° Southwest 199 229 6,900 -1,200 Descending FlightAware ADS-B
Mon 11:13:47 AM 41.7970 -87.9700 227° Southwest 197 227 6,500 -1,333 Descending FlightAware ADS-B
Mon 11:14:17 AM 41.7790 -87.9980 229° Southwest 195 224 5,900 -1,200 Descending FlightAware ADS-B
Mon 11:14:32 AM 41.7700 -88.0110 227° Southwest 194 223 5,600 -1,200 Descending FlightAware ADS-B
Mon 11:14:57 AM 41.7560 -88.0330 230° Southwest 194 223 5,100 -1,200 Descending FlightAware ADS-B
Mon 11:15:07 AM 41.7520 -88.0460 248° West 192 221 4,900 -267 Descending FlightAware ADS-B
Mon 11:15:42 AM 41.7640 -88.0820 294° West 186 214 4,900 -267 Level FlightAware ADS-B
Mon 11:15:52 AM 41.7700 -88.0910 312° West 181 208 4,700 -1,440 Descending FlightAware ADS-B
Mon 11:16:07 AM 41.7790 -88.0950 342° North 174 200 4,300 -1,067 Descending FlightAware ADS-B
Mon 11:16:37 AM 41.8010 -88.0790 28° Northeast 161 185 3,900 -436 Descending FlightAware ADS-B
Mon 11:17:02 AM 41.8150 -88.0630 40° Northeast 156 180 3,900 -218 Level FlightAware ADS-B
Mon 11:17:32 AM 41.8320 -88.0430 41° Northeast 153 176 3,700 -545 Descending FlightAware ADS-B
Mon 11:17:57 AM 41.8440 -88.0290 41° Northeast 149 171 3,400 -750 Descending FlightAware ADS-B
Mon 11:18:12 AM 41.8520 -88.0190 43° Northeast 148 170 3,200 -800 Descending FlightAware ADS-B
Mon 11:18:42 AM 41.8680 -88.0010 40° Northeast 148 170 2,800 -800 Descending FlightAware ADS-B
Mon 11:19:12 AM 41.8820 -87.9830 44° Northeast 148 170 2,400 -873 Descending FlightAware ADS-B
Mon 11:19:37 AM 41.8950 -87.9680 41° Northeast 148 170 2,000 -764 Descending FlightAware ADS-B
Mon 11:20:07 AM 41.9110 -87.9490 41° Northeast 148 170 1,700 -700 Descending FlightAware ADS-B
Mon 11:20:37 AM 41.9270 -87.9310 40° Northeast 148 170 1,300 -873 Descending FlightAware ADS-B
Mon 11:21:02 AM 41.9400 -87.9150 42° Northeast 147 169 900 -873 Descending FlightAware ADS-B
Mon 11:21:32 AM 41.9550 -87.8980 40° Northeast 146 168 500 -800 Descending FlightAware ADS-B

Login

Don't have an account? Register now (free) for customized features, flight alerts, and more!